sensor_id;sensor_type;location;lat;lon;timestamp;temperature;humidity
11047;DHT22;5576;50.008;10.596;2022-09-29T00:01:24;7.70;99.90
11047;DHT22;5576;50.008;10.596;2022-09-29T00:03:50;3.60;99.90
11047;DHT22;5576;50.008;10.596;2022-09-29T00:06:17;7.80;99.90
11047;DHT22;5576;50.008;10.596;2022-09-29T00:08:43;5.50;99.90
11047;DHT22;5576;50.008;10.596;2022-09-29T00:11:11;7.70;99.90
11047;DHT22;5576;50.008;10.596;2022-09-29T00:13:38;7.60;99.90
11047;DHT22;5576;50.008;10.596;2022-09-29T00:16:04;4.10;99.90
11047;DHT22;5576;50.008;10.596;2022-09-29T00:18:32;7.70;99.90
11047;DHT22;5576;50.008;10.596;2022-09-29T00:21:00;7.60;99.90
11047;DHT22;5576;50.008;10.596;2022-09-29T00:23:28;7.70;99.90
11047;DHT22;5576;50.008;10.596;2022-09-29T00:26:12;7.60;99.90
11047;DHT22;5576;50.008;10.596;2022-09-29T00:28:40;7.50;99.90
11047;DHT22;5576;50.008;10.596;2022-09-29T00:31:08;9.30;99.90
11047;DHT22;5576;50.008;10.596;2022-09-29T00:33:35;7.40;99.90
11047;DHT22;5576;50.008;10.596;2022-09-29T00:36:04;7.40;99.90
11047;DHT22;5576;50.008;10.596;2022-09-29T00:38:31;9.30;99.90
11047;DHT22;5576;50.008;10.596;2022-09-29T00:40:57;10.90;99.90
11047;DHT22;5576;50.008;10.596;2022-09-29T00:46:40;7.40;99.90
11047;DHT22;5576;50.008;10.596;2022-09-29T00:51:58;6.50;99.90
11047;DHT22;5576;50.008;10.596;2022-09-29T00:54:29;7.60;99.90
11047;DHT22;5576;50.008;10.596;2022-09-29T00:56:57;4.10;99.90
11047;DHT22;5576;50.008;10.596;2022-09-29T00:59:30;11.00;99.90
11047;DHT22;5576;50.008;10.596;2022-09-29T01:01:57;10.90;99.90
11047;DHT22;5576;50.008;10.596;2022-09-29T01:04:24;7.90;99.90
11047;DHT22;5576;50.008;10.596;2022-09-29T01:06:53;10.30;99.90
11047;DHT22;5576;50.008;10.596;2022-09-29T01:09:24;7.70;99.90
11047;DHT22;5576;50.008;10.596;2022-09-29T01:11:50;7.70;99.90
11047;DHT22;5576;50.008;10.596;2022-09-29T01:14:19;7.60;99.90
11047;DHT22;5576;50.008;10.596;2022-09-29T01:16:46;10.70;99.90
11047;DHT22;5576;50.008;10.596;2022-09-29T01:19:17;3.40;99.90
11047;DHT22;5576;50.008;10.596;2022-09-29T01:24:35;7.80;99.90
11047;DHT22;5576;50.008;10.596;2022-09-29T01:27:14;7.80;99.90
11047;DHT22;5576;50.008;10.596;2022-09-29T01:32:23;5.90;99.90
11047;DHT22;5576;50.008;10.596;2022-09-29T01:35:25;7.80;99.90
11047;DHT22;5576;50.008;10.596;2022-09-29T01:38:13;7.90;99.90
11047;DHT22;5576;50.008;10.596;2022-09-29T01:41:05;7.90;99.90
11047;DHT22;5576;50.008;10.596;2022-09-29T01:43:39;6.10;99.90
11047;DHT22;5576;50.008;10.596;2022-09-29T01:46:14;8.00;99.90
11047;DHT22;5576;50.008;10.596;2022-09-29T01:48:45;8.00;99.90
11047;DHT22;5576;50.008;10.596;2022-09-29T01:51:16;12.50;99.90
11047;DHT22;5576;50.008;10.596;2022-09-29T01:53:48;8.00;99.90
11047;DHT22;5576;50.008;10.596;2022-09-29T01:56:28;4.80;99.90
11047;DHT22;5576;50.008;10.596;2022-09-29T01:59:00;8.00;99.90
11047;DHT22;5576;50.008;10.596;2022-09-29T02:01:31;7.90;99.90
11047;DHT22;5576;50.008;10.596;2022-09-29T02:04:04;9.40;99.90
11047;DHT22;5576;50.008;10.596;2022-09-29T02:06:37;7.90;99.90
11047;DHT22;5576;50.008;10.596;2022-09-29T02:09:10;8.90;99.90
11047;DHT22;5576;50.008;10.596;2022-09-29T02:11:40;7.90;99.90
11047;DHT22;5576;50.008;10.596;2022-09-29T02:14:13;11.10;99.90
11047;DHT22;5576;50.008;10.596;2022-09-29T02:16:44;7.90;99.90
11047;DHT22;5576;50.008;10.596;2022-09-29T02:19:30;8.10;99.90
11047;DHT22;5576;50.008;10.596;2022-09-29T02:21:57;8.10;99.90
11047;DHT22;5576;50.008;10.596;2022-09-29T02:24:23;8.10;99.90
11047;DHT22;5576;50.008;10.596;2022-09-29T02:26:50;8.10;99.90
11047;DHT22;5576;50.008;10.596;2022-09-29T02:29:16;8.00;99.90
11047;DHT22;5576;50.008;10.596;2022-09-29T02:31:43;8.00;99.90
11047;DHT22;5576;50.008;10.596;2022-09-29T02:34:12;8.00;99.90
11047;DHT22;5576;50.008;10.596;2022-09-29T02:51:11;5.10;99.90
11047;DHT22;5576;50.008;10.596;2022-09-29T02:59:19;7.70;99.90
11047;DHT22;5576;50.008;10.596;2022-09-29T03:01:55;7.80;99.90
11047;DHT22;5576;50.008;10.596;2022-09-29T03:04:23;7.70;99.90
11047;DHT22;5576;50.008;10.596;2022-09-29T03:06:50;7.60;99.90
11047;DHT22;5576;50.008;10.596;2022-09-29T03:09:16;7.60;99.90
11047;DHT22;5576;50.008;10.596;2022-09-29T03:11:42;7.60;99.90
11047;DHT22;5576;50.008;10.596;2022-09-29T03:14:08;9.90;99.90
11047;DHT22;5576;50.008;10.596;2022-09-29T03:16:35;10.50;99.90
11047;DHT22;5576;50.008;10.596;2022-09-29T03:19:03;7.60;99.90
11047;DHT22;5576;50.008;10.596;2022-09-29T03:21:30;11.80;99.90
11047;DHT22;5576;50.008;10.596;2022-09-29T03:23:56;7.60;99.90
11047;DHT22;5576;50.008;10.596;2022-09-29T03:26:22;7.80;99.90
11047;DHT22;5576;50.008;10.596;2022-09-29T03:28:49;10.70;99.90
11047;DHT22;5576;50.008;10.596;2022-09-29T03:31:15;7.70;99.90
11047;DHT22;5576;50.008;10.596;2022-09-29T03:33:41;6.70;99.90
11047;DHT22;5576;50.008;10.596;2022-09-29T03:36:08;7.70;99.90
11047;DHT22;5576;50.008;10.596;2022-09-29T03:38:34;7.80;99.90
11047;DHT22;5576;50.008;10.596;2022-09-29T03:41:00;7.70;99.90
11047;DHT22;5576;50.008;10.596;2022-09-29T03:43:26;7.70;99.90
11047;DHT22;5576;50.008;10.596;2022-09-29T03:45:53;7.70;99.90
11047;DHT22;5576;50.008;10.596;2022-09-29T03:48:21;7.80;99.90
11047;DHT22;5576;50.008;10.596;2022-09-29T03:50:48;7.80;99.90
11047;DHT22;5576;50.008;10.596;2022-09-29T03:53:14;7.70;99.90
11047;DHT22;5576;50.008;10.596;2022-09-29T03:55:44;6.60;99.90
11047;DHT22;5576;50.008;10.596;2022-09-29T03:58:10;7.70;99.90
11047;DHT22;5576;50.008;10.596;2022-09-29T04:00:36;7.70;99.90
11047;DHT22;5576;50.008;10.596;2022-09-29T04:03:02;7.60;99.90
11047;DHT22;5576;50.008;10.596;2022-09-29T04:05:28;7.80;99.90
11047;DHT22;5576;50.008;10.596;2022-09-29T04:07:54;11.50;99.90
11047;DHT22;5576;50.008;10.596;2022-09-29T04:10:20;8.00;99.90
11047;DHT22;5576;50.008;10.596;2022-09-29T04:12:46;8.00;99.90
11047;DHT22;5576;50.008;10.596;2022-09-29T04:15:12;8.00;99.90
11047;DHT22;5576;50.008;10.596;2022-09-29T04:17:38;7.90;99.90
11047;DHT22;5576;50.008;10.596;2022-09-29T04:20:03;8.00;99.90
11047;DHT22;5576;50.008;10.596;2022-09-29T04:22:29;6.50;99.90
11047;DHT22;5576;50.008;10.596;2022-09-29T04:24:55;7.90;99.90
11047;DHT22;5576;50.008;10.596;2022-09-29T04:27:21;8.00;99.90
11047;DHT22;5576;50.008;10.596;2022-09-29T04:29:47;8.10;99.90
11047;DHT22;5576;50.008;10.596;2022-09-29T04:32:13;8.10;99.90
11047;DHT22;5576;50.008;10.596;2022-09-29T04:34:38;8.00;99.90
11047;DHT22;5576;50.008;10.596;2022-09-29T04:37:07;12.20;99.90
11047;DHT22;5576;50.008;10.596;2022-09-29T04:39:36;7.90;99.90
11047;DHT22;5576;50.008;10.596;2022-09-29T04:42:02;7.90;99.90
11047;DHT22;5576;50.008;10.596;2022-09-29T04:44:27;6.70;99.90
11047;DHT22;5576;50.008;10.596;2022-09-29T04:46:53;7.80;99.90
11047;DHT22;5576;50.008;10.596;2022-09-29T04:49:19;11.60;99.90
11047;DHT22;5576;50.008;10.596;2022-09-29T04:51:46;7.90;99.90
11047;DHT22;5576;50.008;10.596;2022-09-29T04:54:12;7.90;99.90
11047;DHT22;5576;50.008;10.596;2022-09-29T04:56:38;10.40;99.90
11047;DHT22;5576;50.008;10.596;2022-09-29T04:59:03;7.80;99.90
11047;DHT22;5576;50.008;10.596;2022-09-29T05:01:29;7.80;99.90
11047;DHT22;5576;50.008;10.596;2022-09-29T05:03:55;5.80;99.90
11047;DHT22;5576;50.008;10.596;2022-09-29T05:06:21;11.70;99.90
11047;DHT22;5576;50.008;10.596;2022-09-29T05:08:47;8.10;99.90
11047;DHT22;5576;50.008;10.596;2022-09-29T05:11:13;8.10;99.90
11047;DHT22;5576;50.008;10.596;2022-09-29T05:13:39;8.20;99.90
11047;DHT22;5576;50.008;10.596;2022-09-29T05:16:05;4.50;99.90
11047;DHT22;5576;50.008;10.596;2022-09-29T05:18:32;7.90;99.90
11047;DHT22;5576;50.008;10.596;2022-09-29T05:21:06;7.90;99.90
11047;DHT22;5576;50.008;10.596;2022-09-29T05:23:32;11.80;99.90
11047;DHT22;5576;50.008;10.596;2022-09-29T05:26:03;7.70;99.90
11047;DHT22;5576;50.008;10.596;2022-09-29T05:28:29;5.60;99.90
11047;DHT22;5576;50.008;10.596;2022-09-29T05:31:00;7.40;99.90
11047;DHT22;5576;50.008;10.596;2022-09-29T05:33:26;6.60;99.90
11047;DHT22;5576;50.008;10.596;2022-09-29T05:35:51;7.40;99.90
11047;DHT22;5576;50.008;10.596;2022-09-29T05:38:17;10.00;99.90
11047;DHT22;5576;50.008;10.596;2022-09-29T05:40:43;7.50;99.90
11047;DHT22;5576;50.008;10.596;2022-09-29T05:43:08;7.50;99.90
11047;DHT22;5576;50.008;10.596;2022-09-29T05:45:34;6.40;99.90
11047;DHT22;5576;50.008;10.596;2022-09-29T05:48:00;7.30;99.90
11047;DHT22;5576;50.008;10.596;2022-09-29T05:50:26;9.20;99.90
11047;DHT22;5576;50.008;10.596;2022-09-29T05:52:52;7.70;99.90
11047;DHT22;5576;50.008;10.596;2022-09-29T05:55:18;10.00;99.90
11047;DHT22;5576;50.008;10.596;2022-09-29T05:57:48;7.40;99.90
11047;DHT22;5576;50.008;10.596;2022-09-29T06:00:14;7.30;99.90
11047;DHT22;5576;50.008;10.596;2022-09-29T06:02:40;7.20;99.90
11047;DHT22;5576;50.008;10.596;2022-09-29T06:05:05;7.20;99.90
11047;DHT22;5576;50.008;10.596;2022-09-29T06:07:31;7.10;99.90
11047;DHT22;5576;50.008;10.596;2022-09-29T06:09:57;10.80;99.90
11047;DHT22;5576;50.008;10.596;2022-09-29T06:12:23;6.90;99.90
11047;DHT22;5576;50.008;10.596;2022-09-29T06:14:49;6.90;99.90
11047;DHT22;5576;50.008;10.596;2022-09-29T06:17:15;6.90;99.90
11047;DHT22;5576;50.008;10.596;2022-09-29T06:19:41;6.90;99.90
11047;DHT22;5576;50.008;10.596;2022-09-29T06:22:06;6.90;99.90
11047;DHT22;5576;50.008;10.596;2022-09-29T06:24:32;7.00;99.90
11047;DHT22;5576;50.008;10.596;2022-09-29T06:26:58;7.00;99.90
11047;DHT22;5576;50.008;10.596;2022-09-29T06:29:23;7.10;99.90
11047;DHT22;5576;50.008;10.596;2022-09-29T06:31:49;8.60;99.90
11047;DHT22;5576;50.008;10.596;2022-09-29T06:34:15;7.00;99.90
11047;DHT22;5576;50.008;10.596;2022-09-29T06:36:42;7.10;99.90
11047;DHT22;5576;50.008;10.596;2022-09-29T06:39:29;4.60;99.90
11047;DHT22;5576;50.008;10.596;2022-09-29T06:41:55;7.00;99.90
11047;DHT22;5576;50.008;10.596;2022-09-29T06:44:22;7.00;99.90
11047;DHT22;5576;50.008;10.596;2022-09-29T06:46:50;7.10;99.90
11047;DHT22;5576;50.008;10.596;2022-09-29T06:49:16;7.20;99.90
11047;DHT22;5576;50.008;10.596;2022-09-29T06:51:42;7.30;99.90
11047;DHT22;5576;50.008;10.596;2022-09-29T06:54:10;5.30;99.90
11047;DHT22;5576;50.008;10.596;2022-09-29T06:56:36;7.40;99.90
11047;DHT22;5576;50.008;10.596;2022-09-29T06:59:03;9.20;99.90
11047;DHT22;5576;50.008;10.596;2022-09-29T07:01:28;11.40;99.90
11047;DHT22;5576;50.008;10.596;2022-09-29T07:03:54;7.40;99.90
11047;DHT22;5576;50.008;10.596;2022-09-29T07:06:20;4.80;99.90
11047;DHT22;5576;50.008;10.596;2022-09-29T07:08:45;6.70;99.90
11047;DHT22;5576;50.008;10.596;2022-09-29T07:11:11;8.10;99.90
11047;DHT22;5576;50.008;10.596;2022-09-29T07:13:37;7.60;99.90
11047;DHT22;5576;50.008;10.596;2022-09-29T07:16:05;7.70;99.90
11047;DHT22;5576;50.008;10.596;2022-09-29T07:18:32;7.80;99.90
11047;DHT22;5576;50.008;10.596;2022-09-29T07:20:59;7.80;99.90
11047;DHT22;5576;50.008;10.596;2022-09-29T07:23:25;7.80;99.90
11047;DHT22;5576;50.008;10.596;2022-09-29T07:25:51;7.80;99.90
11047;DHT22;5576;50.008;10.596;2022-09-29T07:28:18;7.80;99.90
11047;DHT22;5576;50.008;10.596;2022-09-29T07:30:43;7.90;99.90
11047;DHT22;5576;50.008;10.596;2022-09-29T07:33:09;7.90;99.90
11047;DHT22;5576;50.008;10.596;2022-09-29T07:35:35;5.30;99.90
11047;DHT22;5576;50.008;10.596;2022-09-29T07:38:00;7.90;99.90
11047;DHT22;5576;50.008;10.596;2022-09-29T07:40:26;6.30;99.90
11047;DHT22;5576;50.008;10.596;2022-09-29T07:42:52;8.20;99.90
11047;DHT22;5576;50.008;10.596;2022-09-29T07:45:20;8.10;99.90
11047;DHT22;5576;50.008;10.596;2022-09-29T07:47:46;8.10;99.90
11047;DHT22;5576;50.008;10.596;2022-09-29T07:50:12;6.40;99.90
11047;DHT22;5576;50.008;10.596;2022-09-29T07:52:37;10.20;99.90
11047;DHT22;5576;50.008;10.596;2022-09-29T07:55:04;8.40;99.90
11047;DHT22;5576;50.008;10.596;2022-09-29T07:59:56;8.40;99.90
11047;DHT22;5576;50.008;10.596;2022-09-29T08:02:24;8.40;99.90
11047;DHT22;5576;50.008;10.596;2022-09-29T08:04:49;8.50;99.90
11047;DHT22;5576;50.008;10.596;2022-09-29T08:07:15;8.60;99.90
11047;DHT22;5576;50.008;10.596;2022-09-29T08:09:41;8.70;99.90
11047;DHT22;5576;50.008;10.596;2022-09-29T08:12:07;5.90;99.90
11047;DHT22;5576;50.008;10.596;2022-09-29T08:14:34;8.90;99.90
11047;DHT22;5576;50.008;10.596;2022-09-29T08:16:59;9.00;99.90
11047;DHT22;5576;50.008;10.596;2022-09-29T08:19:25;9.10;99.90
11047;DHT22;5576;50.008;10.596;2022-09-29T08:21:53;9.70;99.90
11047;DHT22;5576;50.008;10.596;2022-09-29T08:24:18;7.00;99.90
11047;DHT22;5576;50.008;10.596;2022-09-29T08:26:44;13.40;99.90
11047;DHT22;5576;50.008;10.596;2022-09-29T08:29:12;9.50;99.90
11047;DHT22;5576;50.008;10.596;2022-09-29T08:31:39;9.50;99.90
11047;DHT22;5576;50.008;10.596;2022-09-29T08:34:05;9.70;99.90
11047;DHT22;5576;50.008;10.596;2022-09-29T08:36:31;14.40;99.90
11047;DHT22;5576;50.008;10.596;2022-09-29T08:38:57;10.80;99.90
11047;DHT22;5576;50.008;10.596;2022-09-29T08:41:42;9.70;99.90
11047;DHT22;5576;50.008;10.596;2022-09-29T08:46:53;7.90;99.90
11047;DHT22;5576;50.008;10.596;2022-09-29T08:49:27;9.80;99.90
11047;DHT22;5576;50.008;10.596;2022-09-29T08:51:57;8.20;99.90
11047;DHT22;5576;50.008;10.596;2022-09-29T08:54:32;9.90;99.90
11047;DHT22;5576;50.008;10.596;2022-09-29T08:56:59;9.80;99.90
11047;DHT22;5576;50.008;10.596;2022-09-29T08:59:27;10.00;99.90
11047;DHT22;5576;50.008;10.596;2022-09-29T09:02:07;9.90;99.90
11047;DHT22;5576;50.008;10.596;2022-09-29T09:10:09;10.10;99.90
11047;DHT22;5576;50.008;10.596;2022-09-29T09:18:00;10.20;99.90
11047;DHT22;5576;50.008;10.596;2022-09-29T09:23:06;10.40;99.90
11047;DHT22;5576;50.008;10.596;2022-09-29T09:25:35;10.40;99.90
11047;DHT22;5576;50.008;10.596;2022-09-29T09:30:53;10.50;99.90
11047;DHT22;5576;50.008;10.596;2022-09-29T09:36:00;10.70;99.90
11047;DHT22;5576;50.008;10.596;2022-09-29T09:38:38;10.80;99.90
11047;DHT22;5576;50.008;10.596;2022-09-29T09:41:07;10.80;99.90
11047;DHT22;5576;50.008;10.596;2022-09-29T09:43:39;10.80;99.90
11047;DHT22;5576;50.008;10.596;2022-09-29T09:46:15;10.90;99.90
11047;DHT22;5576;50.008;10.596;2022-09-29T09:48:45;11.00;99.90
11047;DHT22;5576;50.008;10.596;2022-09-29T09:51:28;11.00;99.90
11047;DHT22;5576;50.008;10.596;2022-09-29T09:53:58;11.10;99.90
11047;DHT22;5576;50.008;10.596;2022-09-29T09:59:11;11.50;99.90
11047;DHT22;5576;50.008;10.596;2022-09-29T10:01:39;11.60;99.90
11047;DHT22;5576;50.008;10.596;2022-09-29T10:04:07;15.40;99.90
11047;DHT22;5576;50.008;10.596;2022-09-29T10:06:34;15.30;99.90
11047;DHT22;5576;50.008;10.596;2022-09-29T10:08:59;11.60;99.90
11047;DHT22;5576;50.008;10.596;2022-09-29T10:11:27;11.70;99.90
11047;DHT22;5576;50.008;10.596;2022-09-29T10:14:00;11.60;99.90
11047;DHT22;5576;50.008;10.596;2022-09-29T10:16:32;11.80;99.90
11047;DHT22;5576;50.008;10.596;2022-09-29T10:19:00;11.70;99.90
11047;DHT22;5576;50.008;10.596;2022-09-29T10:23:55;11.70;99.90
11047;DHT22;5576;50.008;10.596;2022-09-29T10:26:25;14.60;99.90
11047;DHT22;5576;50.008;10.596;2022-09-29T10:31:42;11.70;99.90
11047;DHT22;5576;50.008;10.596;2022-09-29T10:37:00;11.70;99.90
11047;DHT22;5576;50.008;10.596;2022-09-29T10:39:32;11.80;99.90
11047;DHT22;5576;50.008;10.596;2022-09-29T10:41:59;11.80;99.90
11047;DHT22;5576;50.008;10.596;2022-09-29T10:44:30;11.80;99.90
11047;DHT22;5576;50.008;10.596;2022-09-29T10:46:57;12.50;99.90
11047;DHT22;5576;50.008;10.596;2022-09-29T10:49:25;14.50;99.90
11047;DHT22;5576;50.008;10.596;2022-09-29T10:51:56;16.00;99.90
11047;DHT22;5576;50.008;10.596;2022-09-29T10:54:24;11.90;99.90
11047;DHT22;5576;50.008;10.596;2022-09-29T10:56:51;11.90;99.90
11047;DHT22;5576;50.008;10.596;2022-09-29T10:59:17;12.00;99.90
11047;DHT22;5576;50.008;10.596;2022-09-29T11:01:47;12.00;99.90
11047;DHT22;5576;50.008;10.596;2022-09-29T11:04:27;12.00;99.90
11047;DHT22;5576;50.008;10.596;2022-09-29T11:06:54;12.10;99.90
11047;DHT22;5576;50.008;10.596;2022-09-29T11:11:53;12.10;99.90
11047;DHT22;5576;50.008;10.596;2022-09-29T11:17:22;15.40;99.90
11047;DHT22;5576;50.008;10.596;2022-09-29T11:19:52;13.60;99.90
11047;DHT22;5576;50.008;10.596;2022-09-29T11:22:31;12.30;99.90
11047;DHT22;5576;50.008;10.596;2022-09-29T11:25:06;10.40;99.90
11047;DHT22;5576;50.008;10.596;2022-09-29T11:27:59;12.40;99.90
11047;DHT22;5576;50.008;10.596;2022-09-29T11:30:40;12.40;99.90
11047;DHT22;5576;50.008;10.596;2022-09-29T11:33:18;16.30;99.90
11047;DHT22;5576;50.008;10.596;2022-09-29T11:35:52;12.50;99.90
11047;DHT22;5576;50.008;10.596;2022-09-29T11:52:25;16.50;99.90
11047;DHT22;5576;50.008;10.596;2022-09-29T12:03:36;12.80;99.90
11047;DHT22;5576;50.008;10.596;2022-09-29T12:08:52;12.90;99.90
11047;DHT22;5576;50.008;10.596;2022-09-29T12:16:56;11.10;99.90
11047;DHT22;5576;50.008;10.596;2022-09-29T12:19:26;10.00;99.90
11047;DHT22;5576;50.008;10.596;2022-09-29T12:21:56;13.20;99.90
11047;DHT22;5576;50.008;10.596;2022-09-29T12:24:56;13.20;99.90
11047;DHT22;5576;50.008;10.596;2022-09-29T12:27:28;13.10;99.90
11047;DHT22;5576;50.008;10.596;2022-09-29T12:30:02;16.10;99.90
11047;DHT22;5576;50.008;10.596;2022-09-29T12:32:33;13.30;99.90
11047;DHT22;5576;50.008;10.596;2022-09-29T12:35:38;13.20;99.90
11047;DHT22;5576;50.008;10.596;2022-09-29T12:38:24;13.20;99.90
11047;DHT22;5576;50.008;10.596;2022-09-29T12:48:51;13.00;99.90
11047;DHT22;5576;50.008;10.596;2022-09-29T12:56:26;13.10;99.90
11047;DHT22;5576;50.008;10.596;2022-09-29T12:59:00;13.10;99.90
11047;DHT22;5576;50.008;10.596;2022-09-29T13:01:31;13.00;99.90
11047;DHT22;5576;50.008;10.596;2022-09-29T13:09:28;10.10;99.90
11047;DHT22;5576;50.008;10.596;2022-09-29T13:29:02;11.30;99.90
11047;DHT22;5576;50.008;10.596;2022-09-29T13:31:31;13.00;99.90
11047;DHT22;5576;50.008;10.596;2022-09-29T13:34:02;13.10;99.90
11047;DHT22;5576;50.008;10.596;2022-09-29T13:36:37;16.70;99.90
11047;DHT22;5576;50.008;10.596;2022-09-29T13:39:06;13.10;99.90
11047;DHT22;5576;50.008;10.596;2022-09-29T13:41:35;13.10;99.90
11047;DHT22;5576;50.008;10.596;2022-09-29T13:44:22;13.10;99.90
11047;DHT22;5576;50.008;10.596;2022-09-29T13:46:50;15.90;99.90
11047;DHT22;5576;50.008;10.596;2022-09-29T13:54:23;13.10;99.90
11047;DHT22;5576;50.008;10.596;2022-09-29T13:59:42;13.10;99.90
11047;DHT22;5576;50.008;10.596;2022-09-29T14:02:37;13.90;99.90
11047;DHT22;5576;50.008;10.596;2022-09-29T14:05:11;13.20;99.90
11047;DHT22;5576;50.008;10.596;2022-09-29T14:10:35;13.20;99.90
11047;DHT22;5576;50.008;10.596;2022-09-29T14:15:42;13.20;99.90
11047;DHT22;5576;50.008;10.596;2022-09-29T14:18:20;13.30;99.90
11047;DHT22;5576;50.008;10.596;2022-09-29T14:21:00;13.20;99.90
11047;DHT22;5576;50.008;10.596;2022-09-29T14:26:47;12.80;99.90
11047;DHT22;5576;50.008;10.596;2022-09-29T14:29:20;13.30;99.90
11047;DHT22;5576;50.008;10.596;2022-09-29T14:31:50;13.30;99.90
11047;DHT22;5576;50.008;10.596;2022-09-29T14:34:20;13.30;99.90
11047;DHT22;5576;50.008;10.596;2022-09-29T14:36:48;13.30;99.90
11047;DHT22;5576;50.008;10.596;2022-09-29T14:39:16;13.30;99.90
11047;DHT22;5576;50.008;10.596;2022-09-29T14:41:44;13.40;99.90
11047;DHT22;5576;50.008;10.596;2022-09-29T14:47:09;13.40;99.90
11047;DHT22;5576;50.008;10.596;2022-09-29T14:50:02;13.40;99.90
11047;DHT22;5576;50.008;10.596;2022-09-29T14:53:01;13.30;99.90
11047;DHT22;5576;50.008;10.596;2022-09-29T14:55:37;13.10;99.90
11047;DHT22;5576;50.008;10.596;2022-09-29T15:01:18;13.00;99.90
11047;DHT22;5576;50.008;10.596;2022-09-29T15:03:50;13.00;99.90
11047;DHT22;5576;50.008;10.596;2022-09-29T15:06:18;13.10;99.90
11047;DHT22;5576;50.008;10.596;2022-09-29T15:09:10;13.10;99.90
11047;DHT22;5576;50.008;10.596;2022-09-29T15:11:43;17.10;99.90
11047;DHT22;5576;50.008;10.596;2022-09-29T15:14:26;12.90;99.90
11047;DHT22;5576;50.008;10.596;2022-09-29T15:19:58;10.80;99.90
11047;DHT22;5576;50.008;10.596;2022-09-29T15:25:23;13.00;99.90
11047;DHT22;5576;50.008;10.596;2022-09-29T15:27:53;12.80;99.90
11047;DHT22;5576;50.008;10.596;2022-09-29T15:30:21;12.70;99.90
11047;DHT22;5576;50.008;10.596;2022-09-29T15:32:49;12.60;99.90
11047;DHT22;5576;50.008;10.596;2022-09-29T15:35:21;12.60;99.90
11047;DHT22;5576;50.008;10.596;2022-09-29T15:37:55;11.90;99.90
11047;DHT22;5576;50.008;10.596;2022-09-29T15:40:23;12.40;99.90
11047;DHT22;5576;50.008;10.596;2022-09-29T15:42:50;12.30;99.90
11047;DHT22;5576;50.008;10.596;2022-09-29T15:45:20;12.20;99.90
11047;DHT22;5576;50.008;10.596;2022-09-29T15:47:47;12.20;99.90
11047;DHT22;5576;50.008;10.596;2022-09-29T15:50:18;12.10;99.90
11047;DHT22;5576;50.008;10.596;2022-09-29T15:52:45;12.10;99.90
11047;DHT22;5576;50.008;10.596;2022-09-29T15:55:14;12.00;99.90
11047;DHT22;5576;50.008;10.596;2022-09-29T15:57:43;12.00;99.90
11047;DHT22;5576;50.008;10.596;2022-09-29T16:08:54;11.80;99.90
11047;DHT22;5576;50.008;10.596;2022-09-29T16:11:24;11.80;99.90
11047;DHT22;5576;50.008;10.596;2022-09-29T16:13:54;11.80;99.90
11047;DHT22;5576;50.008;10.596;2022-09-29T16:16:31;11.50;99.90
11047;DHT22;5576;50.008;10.596;2022-09-29T16:19:02;13.80;99.90
11047;DHT22;5576;50.008;10.596;2022-09-29T16:21:34;12.00;99.90
11047;DHT22;5576;50.008;10.596;2022-09-29T16:24:12;12.00;99.90
11047;DHT22;5576;50.008;10.596;2022-09-29T16:26:55;12.00;99.90
11047;DHT22;5576;50.008;10.596;2022-09-29T16:29:24;12.00;99.90
11047;DHT22;5576;50.008;10.596;2022-09-29T16:31:51;12.00;99.90
11047;DHT22;5576;50.008;10.596;2022-09-29T16:39:20;12.00;99.90
11047;DHT22;5576;50.008;10.596;2022-09-29T16:41:48;12.00;99.90
11047;DHT22;5576;50.008;10.596;2022-09-29T16:44:18;11.90;99.90
11047;DHT22;5576;50.008;10.596;2022-09-29T16:46:51;11.80;99.90
11047;DHT22;5576;50.008;10.596;2022-09-29T16:49:23;13.70;99.90
11047;DHT22;5576;50.008;10.596;2022-09-29T16:51:51;8.70;99.90
11047;DHT22;5576;50.008;10.596;2022-09-29T16:54:23;11.70;99.90
11047;DHT22;5576;50.008;10.596;2022-09-29T16:57:13;11.70;99.90
11047;DHT22;5576;50.008;10.596;2022-09-29T16:59:42;11.60;99.90
11047;DHT22;5576;50.008;10.596;2022-09-29T17:02:09;11.60;99.90
11047;DHT22;5576;50.008;10.596;2022-09-29T17:04:35;11.60;99.90
11047;DHT22;5576;50.008;10.596;2022-09-29T17:07:00;11.60;99.90
11047;DHT22;5576;50.008;10.596;2022-09-29T17:11:54;11.60;99.90
11047;DHT22;5576;50.008;10.596;2022-09-29T17:14:19;15.70;99.90
11047;DHT22;5576;50.008;10.596;2022-09-29T17:16:47;13.90;99.90
11047;DHT22;5576;50.008;10.596;2022-09-29T17:19:16;11.60;99.90
11047;DHT22;5576;50.008;10.596;2022-09-29T17:21:42;11.60;99.90
11047;DHT22;5576;50.008;10.596;2022-09-29T17:24:08;14.80;99.90
11047;DHT22;5576;50.008;10.596;2022-09-29T17:26:37;11.50;99.90
11047;DHT22;5576;50.008;10.596;2022-09-29T17:29:23;11.50;99.90
11047;DHT22;5576;50.008;10.596;2022-09-29T17:31:49;14.80;99.90
11047;DHT22;5576;50.008;10.596;2022-09-29T17:34:15;15.20;99.90
11047;DHT22;5576;50.008;10.596;2022-09-29T17:36:42;11.20;99.90
11047;DHT22;5576;50.008;10.596;2022-09-29T17:39:08;15.50;99.90
11047;DHT22;5576;50.008;10.596;2022-09-29T17:41:34;11.30;99.90
11047;DHT22;5576;50.008;10.596;2022-09-29T17:44:00;11.40;99.90
11047;DHT22;5576;50.008;10.596;2022-09-29T17:46:30;11.30;99.90
11047;DHT22;5576;50.008;10.596;2022-09-29T17:48:56;11.20;99.90
11047;DHT22;5576;50.008;10.596;2022-09-29T17:51:22;11.10;99.90
11047;DHT22;5576;50.008;10.596;2022-09-29T17:53:47;10.90;99.90
11047;DHT22;5576;50.008;10.596;2022-09-29T17:56:20;10.90;99.90
11047;DHT22;5576;50.008;10.596;2022-09-29T17:58:48;10.90;99.90
11047;DHT22;5576;50.008;10.596;2022-09-29T18:01:16;14.80;99.90
11047;DHT22;5576;50.008;10.596;2022-09-29T18:03:44;10.80;99.90
11047;DHT22;5576;50.008;10.596;2022-09-29T18:06:17;10.80;99.90
11047;DHT22;5576;50.008;10.596;2022-09-29T18:08:47;10.80;99.90
11047;DHT22;5576;50.008;10.596;2022-09-29T18:11:17;10.90;99.90
11047;DHT22;5576;50.008;10.596;2022-09-29T18:13:43;11.00;99.90
11047;DHT22;5576;50.008;10.596;2022-09-29T18:16:12;11.00;99.90
11047;DHT22;5576;50.008;10.596;2022-09-29T18:18:38;13.30;99.90
11047;DHT22;5576;50.008;10.596;2022-09-29T18:21:04;15.10;99.90
11047;DHT22;5576;50.008;10.596;2022-09-29T18:23:30;11.10;99.90
11047;DHT22;5576;50.008;10.596;2022-09-29T18:25:56;11.10;99.90
11047;DHT22;5576;50.008;10.596;2022-09-29T18:28:22;11.10;99.90
11047;DHT22;5576;50.008;10.596;2022-09-29T18:30:53;11.20;99.90
11047;DHT22;5576;50.008;10.596;2022-09-29T18:33:19;13.30;99.90
11047;DHT22;5576;50.008;10.596;2022-09-29T18:35:51;14.40;99.90
11047;DHT22;5576;50.008;10.596;2022-09-29T18:38:17;11.00;99.90
11047;DHT22;5576;50.008;10.596;2022-09-29T18:40:43;11.10;99.90
11047;DHT22;5576;50.008;10.596;2022-09-29T18:43:11;10.80;99.90
11047;DHT22;5576;50.008;10.596;2022-09-29T18:45:38;10.90;99.90
11047;DHT22;5576;50.008;10.596;2022-09-29T18:48:10;10.90;99.90
11047;DHT22;5576;50.008;10.596;2022-09-29T18:50:40;10.80;99.90
11047;DHT22;5576;50.008;10.596;2022-09-29T18:53:08;10.90;99.90
11047;DHT22;5576;50.008;10.596;2022-09-29T18:55:34;10.80;99.90